RUK52W EGAA-EGPH
Flight info
| Callsign | RUK52W |
|---|---|
| Flight time | 0h 37m |
| Altitude | 17000 |
| Route | BLACA P600 TUNSO |
| Aircraft | B738/M-SDE2E3FGHIRWXY/LB1 |
Departure
| Time | 2026-05-04 14:49 |
|---|---|
| Airport | Belfast International Airport (EGAA) |
Arrival
| Time | 2026-05-04 15:26 |
|---|---|
| Airport | Edinburgh Airport (EGPH) |
| Time | Latitude | Longitude | Altitude | Speed | Heading |
|---|---|---|---|---|---|
| 2026-05-04 14:13 | 54.66146 | -6.21373 | 240 ft | 0 kts | 244° |
| 2026-05-04 14:38 | 54.66157 | -6.21341 | 241 ft | 4 kts | 229° |
| 2026-05-04 14:39 | 54.66177 | -6.21314 | 241 ft | 4 kts | 193° |
| 2026-05-04 14:39 | 54.66195 | -6.21314 | 241 ft | 0 kts | 154° |
| 2026-05-04 14:43 | 54.66188 | -6.21308 | 241 ft | 5 kts | 154° |
| 2026-05-04 14:43 | 54.66137 | -6.21266 | 242 ft | 10 kts | 154° |
| 2026-05-04 14:43 | 54.66078 | -6.21217 | 243 ft | 9 kts | 154° |
| 2026-05-04 14:43 | 54.66055 | -6.21128 | 244 ft | 9 kts | 71° |
| 2026-05-04 14:44 | 54.66080 | -6.21028 | 245 ft | 10 kts | 65° |
| 2026-05-04 14:44 | 54.66117 | -6.20900 | 247 ft | 15 kts | 63° |
| 2026-05-04 14:44 | 54.66167 | -6.20710 | 250 ft | 20 kts | 65° |
| 2026-05-04 14:44 | 54.66229 | -6.20477 | 253 ft | 21 kts | 64° |
| 2026-05-04 14:45 | 54.66291 | -6.20248 | 256 ft | 21 kts | 65° |
| 2026-05-04 14:45 | 54.66351 | -6.20025 | 259 ft | 20 kts | 64° |
| 2026-05-04 14:45 | 54.66390 | -6.19879 | 261 ft | 11 kts | 71° |
| 2026-05-04 14:45 | 54.66389 | -6.19767 | 262 ft | 6 kts | 112° |
| 2026-05-04 14:46 | 54.66373 | -6.19726 | 263 ft | 0 kts | 134° |
| 2026-05-04 14:46 | 54.66372 | -6.19724 | 263 ft | 1 kts | 135° |
| 2026-05-04 14:46 | 54.66328 | -6.19676 | 263 ft | 12 kts | 154° |
| 2026-05-04 14:47 | 54.66267 | -6.19678 | 262 ft | 10 kts | 219° |
| 2026-05-04 14:47 | 54.66256 | -6.19705 | 261 ft | 0 kts | 241° |
| 2026-05-04 14:48 | 54.66247 | -6.19735 | 261 ft | 16 kts | 243° |
| 2026-05-04 14:48 | 54.66094 | -6.20298 | 256 ft | 87 kts | 245° |
| 2026-05-04 14:48 | 54.65751 | -6.21577 | 238 ft | 145 kts | 245° |
| 2026-05-04 14:48 | 54.65297 | -6.23299 | 668 ft | 157 kts | 248° |
| 2026-05-04 14:49 | 54.64802 | -6.25046 | 1369 ft | 166 kts | 246° |
| 2026-05-04 14:49 | 54.64267 | -6.26817 | 2095 ft | 167 kts | 245° |
| 2026-05-04 14:49 | 54.63727 | -6.28613 | 2772 ft | 169 kts | 245° |
| 2026-05-04 14:49 | 54.63166 | -6.30471 | 3240 ft | 184 kts | 245° |
| 2026-05-04 14:50 | 54.62545 | -6.32568 | 3450 ft | 207 kts | 244° |
| 2026-05-04 14:50 | 54.61555 | -6.34507 | 3604 ft | 229 kts | 214° |
| 2026-05-04 14:50 | 54.59987 | -6.35316 | 3762 ft | 253 kts | 183° |
| 2026-05-04 14:50 | 54.58235 | -6.34596 | 4062 ft | 268 kts | 153° |
| 2026-05-04 14:51 | 54.56850 | -6.32424 | 4634 ft | 275 kts | 123° |
| 2026-05-04 14:51 | 54.56207 | -6.29350 | 5378 ft | 276 kts | 95° |
| 2026-05-04 14:51 | 54.56387 | -6.26058 | 6116 ft | 277 kts | 76° |
| 2026-05-04 14:51 | 54.56876 | -6.22806 | 6765 ft | 283 kts | 74° |
| 2026-05-04 14:52 | 54.57407 | -6.19521 | 7486 ft | 285 kts | 73° |
| 2026-05-04 14:52 | 54.58003 | -6.16247 | 8243 ft | 287 kts | 66° |
| 2026-05-04 14:52 | 54.58893 | -6.13143 | 8980 ft | 290 kts | 60° |
| 2026-05-04 14:52 | 54.59881 | -6.10092 | 9718 ft | 292 kts | 59° |
| 2026-05-04 14:53 | 54.60890 | -6.07009 | 10062 ft | 298 kts | 59° |
| 2026-05-04 14:53 | 54.61907 | -6.03856 | 10429 ft | 303 kts | 60° |
| 2026-05-04 14:53 | 54.62935 | -6.00610 | 10826 ft | 320 kts | 60° |
| 2026-05-04 14:53 | 54.64033 | -5.97100 | 11010 ft | 343 kts | 60° |
| 2026-05-04 14:54 | 54.65188 | -5.93359 | 11187 ft | 365 kts | 61° |
| 2026-05-04 14:54 | 54.66398 | -5.89402 | 11605 ft | 377 kts | 61° |
| 2026-05-04 14:54 | 54.67627 | -5.85355 | 12236 ft | 382 kts | 61° |
| 2026-05-04 14:54 | 54.68843 | -5.81329 | 13017 ft | 384 kts | 61° |
| 2026-05-04 14:55 | 54.70082 | -5.77217 | 13763 ft | 388 kts | 61° |
| 2026-05-04 14:55 | 54.71331 | -5.73063 | 14445 ft | 391 kts | 61° |
| 2026-05-04 14:55 | 54.72591 | -5.68865 | 15132 ft | 395 kts | 61° |
| 2026-05-04 14:55 | 54.73860 | -5.64629 | 15828 ft | 398 kts | 61° |
| 2026-05-04 14:56 | 54.75139 | -5.60354 | 16505 ft | 401 kts | 61° |
| 2026-05-04 14:56 | 54.76429 | -5.56035 | 17050 ft | 406 kts | 61° |
| 2026-05-04 14:56 | 54.77743 | -5.51628 | 17074 ft | 419 kts | 61° |
| 2026-05-04 14:56 | 54.79100 | -5.47070 | 17092 ft | 431 kts | 61° |
| 2026-05-04 14:57 | 54.80482 | -5.42415 | 17095 ft | 436 kts | 61° |
| 2026-05-04 14:57 | 54.81862 | -5.37753 | 17081 ft | 432 kts | 62° |
| 2026-05-04 14:57 | 54.83214 | -5.33180 | 17071 ft | 430 kts | 61° |
| 2026-05-04 14:57 | 54.84573 | -5.28577 | 17076 ft | 429 kts | 62° |
| 2026-05-04 14:58 | 54.85932 | -5.23968 | 17081 ft | 429 kts | 61° |
| 2026-05-04 14:58 | 54.87416 | -5.19486 | 17071 ft | 429 kts | 52° |
| 2026-05-04 14:58 | 54.89417 | -5.15662 | 17077 ft | 427 kts | 39° |
| 2026-05-04 14:58 | 54.91816 | -5.12648 | 17082 ft | 426 kts | 27° |
| 2026-05-04 14:59 | 54.94470 | -5.10356 | 17083 ft | 426 kts | 24° |
| 2026-05-04 14:59 | 54.97151 | -5.08139 | 17073 ft | 427 kts | 24° |
| 2026-05-04 14:59 | 55.02508 | -5.03597 | 17071 ft | 428 kts | 24° |
| 2026-05-04 15:00 | 55.05183 | -5.01274 | 17075 ft | 428 kts | 25° |
| 2026-05-04 15:00 | 55.07840 | -4.98920 | 17076 ft | 428 kts | 27° |
| 2026-05-04 15:00 | 55.10250 | -4.95845 | 17070 ft | 432 kts | 42° |
| 2026-05-04 15:01 | 55.13445 | -4.87292 | 16703 ft | 414 kts | 65° |
| 2026-05-04 15:01 | 55.14558 | -4.82765 | 16378 ft | 406 kts | 65° |
| 2026-05-04 15:01 | 55.15640 | -4.78258 | 16109 ft | 402 kts | 65° |
| 2026-05-04 15:01 | 55.16726 | -4.73730 | 15878 ft | 406 kts | 66° |
| 2026-05-04 15:02 | 55.17831 | -4.69161 | 15647 ft | 408 kts | 65° |
| 2026-05-04 15:02 | 55.18929 | -4.64647 | 15396 ft | 407 kts | 65° |
| 2026-05-04 15:02 | 55.20052 | -4.60055 | 15138 ft | 406 kts | 65° |
| 2026-05-04 15:02 | 55.21145 | -4.55594 | 14902 ft | 405 kts | 65° |
| 2026-05-04 15:03 | 55.22275 | -4.50988 | 14658 ft | 403 kts | 65° |
| 2026-05-04 15:03 | 55.23380 | -4.46478 | 14423 ft | 402 kts | 65° |
| 2026-05-04 15:03 | 55.24479 | -4.41984 | 14185 ft | 401 kts | 65° |
| 2026-05-04 15:03 | 55.25573 | -4.37500 | 13946 ft | 400 kts | 65° |
| 2026-05-04 15:04 | 55.26663 | -4.33027 | 13689 ft | 399 kts | 65° |
| 2026-05-04 15:04 | 55.27749 | -4.28557 | 13429 ft | 397 kts | 65° |
| 2026-05-04 15:04 | 55.28827 | -4.24113 | 13188 ft | 396 kts | 65° |
| 2026-05-04 15:04 | 55.29902 | -4.19671 | 12948 ft | 394 kts | 65° |
| 2026-05-04 15:05 | 55.30971 | -4.15245 | 12704 ft | 393 kts | 65° |
| 2026-05-04 15:05 | 55.32034 | -4.10834 | 12476 ft | 391 kts | 65° |
| 2026-05-04 15:05 | 55.33079 | -4.06490 | 12237 ft | 391 kts | 66° |
| 2026-05-04 15:05 | 55.34134 | -4.02099 | 12010 ft | 389 kts | 66° |
| 2026-05-04 15:06 | 55.35183 | -3.97719 | 11773 ft | 388 kts | 66° |
| 2026-05-04 15:06 | 55.36228 | -3.93349 | 11544 ft | 386 kts | 66° |
| 2026-05-04 15:06 | 55.37252 | -3.89056 | 11315 ft | 376 kts | 66° |
| 2026-05-04 15:07 | 55.39345 | -3.80917 | 10783 ft | 358 kts | 55° |
| 2026-05-04 15:07 | 55.40879 | -3.77468 | 10588 ft | 356 kts | 47° |
| 2026-05-04 15:07 | 55.42493 | -3.74220 | 10346 ft | 349 kts | 46° |
| 2026-05-04 15:07 | 55.44079 | -3.71054 | 10122 ft | 339 kts | 46° |
| 2026-05-04 15:08 | 55.45617 | -3.67964 | 10004 ft | 328 kts | 46° |
| 2026-05-04 15:08 | 55.47081 | -3.64999 | 10008 ft | 314 kts | 47° |
| 2026-05-04 15:08 | 55.48480 | -3.62145 | 9993 ft | 301 kts | 47° |
| 2026-05-04 15:08 | 55.49823 | -3.59394 | 9913 ft | 292 kts | 47° |
| 2026-05-04 15:09 | 55.51118 | -3.56734 | 9683 ft | 288 kts | 47° |
| 2026-05-04 15:09 | 55.52419 | -3.54054 | 9372 ft | 287 kts | 47° |
| 2026-05-04 15:09 | 55.53718 | -3.51375 | 9023 ft | 287 kts | 47° |
| 2026-05-04 15:10 | 55.56304 | -3.46027 | 8499 ft | 284 kts | 47° |
| 2026-05-04 15:10 | 55.57581 | -3.43378 | 8313 ft | 282 kts | 47° |
| 2026-05-04 15:10 | 55.60116 | -3.38114 | 7958 ft | 282 kts | 47° |
| 2026-05-04 15:11 | 55.61383 | -3.35476 | 7790 ft | 281 kts | 47° |
| 2026-05-04 15:11 | 55.62649 | -3.32840 | 7617 ft | 281 kts | 47° |
| 2026-05-04 15:11 | 55.63914 | -3.30200 | 7449 ft | 281 kts | 47° |
| 2026-05-04 15:11 | 55.65180 | -3.27556 | 7283 ft | 281 kts | 47° |
| 2026-05-04 15:12 | 55.66445 | -3.24914 | 7121 ft | 281 kts | 47° |
| 2026-05-04 15:12 | 55.67701 | -3.22286 | 7032 ft | 278 kts | 47° |
| 2026-05-04 15:12 | 55.68940 | -3.19691 | 7021 ft | 271 kts | 47° |
| 2026-05-04 15:12 | 55.70135 | -3.17181 | 7002 ft | 261 kts | 47° |
| 2026-05-04 15:13 | 55.71291 | -3.14773 | 7003 ft | 251 kts | 44° |
| 2026-05-04 15:13 | 55.72629 | -3.12955 | 7017 ft | 236 kts | 28° |
| 2026-05-04 15:13 | 55.74007 | -3.11401 | 6859 ft | 235 kts | 29° |
| 2026-05-04 15:13 | 55.75390 | -3.09803 | 6636 ft | 237 kts | 29° |
| 2026-05-04 15:14 | 55.76748 | -3.08239 | 6513 ft | 234 kts | 30° |
| 2026-05-04 15:14 | 55.78117 | -3.06664 | 6307 ft | 235 kts | 29° |
| 2026-05-04 15:14 | 55.79489 | -3.05081 | 6099 ft | 234 kts | 29° |
| 2026-05-04 15:14 | 55.80862 | -3.03503 | 6034 ft | 234 kts | 30° |
| 2026-05-04 15:15 | 55.82225 | -3.01944 | 5989 ft | 232 kts | 29° |
| 2026-05-04 15:15 | 55.83635 | -3.00620 | 5995 ft | 226 kts | 19° |
| 2026-05-04 15:15 | 55.85083 | -2.99509 | 6004 ft | 228 kts | 20° |
| 2026-05-04 15:16 | 55.87906 | -2.97332 | 6003 ft | 209 kts | 19° |
| 2026-05-04 15:16 | 55.89207 | -2.96306 | 6002 ft | 202 kts | 20° |
| 2026-05-04 15:16 | 55.91812 | -2.94595 | 5996 ft | 198 kts | 10° |
| 2026-05-04 15:17 | 55.93142 | -2.93975 | 5993 ft | 198 kts | 9° |
| 2026-05-04 15:17 | 55.95807 | -2.92733 | 5975 ft | 200 kts | 17° |
| 2026-05-04 15:17 | 55.97043 | -2.91576 | 5912 ft | 200 kts | 24° |
| 2026-05-04 15:18 | 55.98246 | -2.90396 | 5647 ft | 199 kts | 21° |
| 2026-05-04 15:18 | 55.99558 | -2.89973 | 5311 ft | 189 kts | 346° |
| 2026-05-04 15:18 | 56.00821 | -2.90529 | 5047 ft | 186 kts | 339° |
| 2026-05-04 15:19 | 56.03283 | -2.91770 | 4525 ft | 182 kts | 339° |
| 2026-05-04 15:19 | 56.04505 | -2.92385 | 4209 ft | 183 kts | 340° |
| 2026-05-04 15:19 | 56.06508 | -2.93534 | 4004 ft | 182 kts | 324° |
| 2026-05-04 15:20 | 56.07274 | -2.95221 | 3919 ft | 175 kts | 285° |
| 2026-05-04 15:20 | 56.07317 | -2.97354 | 3701 ft | 172 kts | 265° |
| 2026-05-04 15:20 | 56.07188 | -2.99495 | 3408 ft | 172 kts | 265° |
| 2026-05-04 15:20 | 56.06927 | -3.01545 | 3161 ft | 171 kts | 246° |
| 2026-05-04 15:21 | 56.06326 | -3.03415 | 3031 ft | 174 kts | 244° |
| 2026-05-04 15:21 | 56.05731 | -3.05301 | 3002 ft | 174 kts | 243° |
| 2026-05-04 15:21 | 56.04527 | -3.09019 | 2995 ft | 172 kts | 244° |
| 2026-05-04 15:22 | 56.03932 | -3.10884 | 2998 ft | 172 kts | 243° |
| 2026-05-04 15:22 | 56.03325 | -3.12710 | 2992 ft | 171 kts | 243° |
| 2026-05-04 15:22 | 56.02139 | -3.16206 | 2698 ft | 152 kts | 242° |
| 2026-05-04 15:23 | 56.01589 | -3.17821 | 2481 ft | 152 kts | 243° |
| 2026-05-04 15:23 | 56.01044 | -3.19423 | 2271 ft | 151 kts | 243° |
| 2026-05-04 15:23 | 56.00502 | -3.21022 | 2066 ft | 151 kts | 243° |
| 2026-05-04 15:23 | 55.99958 | -3.22622 | 1861 ft | 149 kts | 243° |
| 2026-05-04 15:24 | 55.98924 | -3.25665 | 1445 ft | 139 kts | 243° |
| 2026-05-04 15:24 | 55.97890 | -3.28608 | 1057 ft | 141 kts | 244° |
| 2026-05-04 15:25 | 55.97408 | -3.30142 | 891 ft | 140 kts | 244° |
| 2026-05-04 15:25 | 55.96908 | -3.31646 | 682 ft | 142 kts | 241° |
| 2026-05-04 15:25 | 55.96387 | -3.33143 | 513 ft | 141 kts | 242° |
| 2026-05-04 15:26 | 55.95366 | -3.36174 | 119 ft | 140 kts | 238° |
| 2026-05-04 15:26 | 55.94917 | -3.37480 | 106 ft | 97 kts | 238° |
| 2026-05-04 15:26 | 55.94675 | -3.38039 | 113 ft | 16 kts | 153° |
| 2026-05-04 15:27 | 55.94628 | -3.37987 | 111 ft | 2 kts | 147° |
| 2026-05-04 15:27 | 55.94626 | -3.37985 | 111 ft | 0 kts | 147° |
| 2026-05-04 15:28 | 55.94622 | -3.37980 | 112 ft | 2 kts | 147° |
| 2026-05-04 15:28 | 55.94609 | -3.37965 | 110 ft | 2 kts | 146° |
| 2026-05-04 15:28 | 55.94600 | -3.37865 | 110 ft | 6 kts | 63° |
| 2026-05-04 15:29 | 55.94618 | -3.37805 | 111 ft | 5 kts | 60° |
| 2026-05-04 15:30 | 55.94775 | -3.37342 | 105 ft | 22 kts | 58° |
| 2026-05-04 15:30 | 55.94921 | -3.36837 | 104 ft | 9 kts | 122° |
| 2026-05-04 15:31 | 55.94823 | -3.36780 | 104 ft | 5 kts | 180° |
| 2026-05-04 15:31 | 55.94802 | -3.36737 | 103 ft | 5 kts | 97° |
| 2026-05-04 15:32 | 55.94802 | -3.36626 | 105 ft | 1 kts | 89° |
| 2026-05-04 15:32 | 55.94802 | -3.36621 | 105 ft | 0 kts | 89° |